Clifton, New Jersey
Current Conditions -  °F | °C
As of 11:05 AM on Wednesday 26 Nov 2014 (Local Time) from KTEB Reporting Station
Moderate Snow Moderate Snow  
Wind Chill: -2°   Ceiling: 500
Heat Index:   Visibility: 0.75mi
Dew Point: -1°   Wind: 7mph
Humidity: 87%   Direction: 20°NNE
Pressure: 30.07"   Gusts: NA
Location:  40.87°N, 74.16°W
Report Text: KTEB 261605Z 02006KT 3/4SM R06/5000VP6000FT SN OVC005 01/M01 A3007 RMK AO2 PRESFR P0003
Loading
Personal Weather Stations






























Interactive Weather Map New forecast layout! Learn more

10-Day Weather Forecast

Advertisements
Track Severe Weather on mobile